createdAt,value
2019-05-13T00:00:17.685Z,0.00
2019-05-13T00:01:17.674Z,0.00
2019-05-13T00:02:17.663Z,0.00
2019-05-13T00:03:17.654Z,0.00
2019-05-13T00:04:17.648Z,0.00
2019-05-13T00:05:17.630Z,0.00
2019-05-13T00:06:17.621Z,0.00
2019-05-13T00:07:17.609Z,0.00
2019-05-13T00:08:17.597Z,0.00
2019-05-13T00:09:17.595Z,0.00
2019-05-13T00:10:17.577Z,0.00
2019-05-13T00:11:17.569Z,0.00
2019-05-13T00:12:17.555Z,0.00
2019-05-13T00:13:17.544Z,0.00
2019-05-13T00:14:17.546Z,0.00
2019-05-13T00:15:17.521Z,0.00
2019-05-13T00:16:17.514Z,0.00
2019-05-13T00:17:17.498Z,0.00
2019-05-13T00:18:17.487Z,0.00
2019-05-13T00:19:17.487Z,0.00
2019-05-13T00:20:17.467Z,0.00
2019-05-13T00:21:17.456Z,0.00
2019-05-13T00:22:17.444Z,0.00
2019-05-13T00:23:17.432Z,0.00
2019-05-13T00:24:17.430Z,0.00
2019-05-13T00:25:17.411Z,0.00
2019-05-13T00:26:17.400Z,0.00
2019-05-13T00:27:17.389Z,0.00
2019-05-13T00:28:17.380Z,0.00
2019-05-13T00:29:17.375Z,0.00
2019-05-13T00:30:17.356Z,0.00
2019-05-13T00:31:17.345Z,0.00
2019-05-13T00:32:17.335Z,0.00
2019-05-13T00:33:17.323Z,0.00
2019-05-13T00:34:17.322Z,0.00
2019-05-13T00:35:17.302Z,0.00
2019-05-13T00:36:17.291Z,0.00
2019-05-13T00:37:17.279Z,0.00
2019-05-13T00:38:17.269Z,0.00
2019-05-13T00:39:17.268Z,0.00
2019-05-13T00:40:17.247Z,0.00
2019-05-13T00:41:17.236Z,0.00
2019-05-13T00:42:17.227Z,0.00
2019-05-13T00:43:17.214Z,0.00
2019-05-13T00:44:17.214Z,0.00
2019-05-13T00:45:17.193Z,0.00
2019-05-13T00:46:17.184Z,0.00
2019-05-13T00:47:17.171Z,0.00
2019-05-13T00:48:17.160Z,0.00
2019-05-13T00:49:17.157Z,0.00
2019-05-13T00:50:17.139Z,0.00
2019-05-13T00:51:17.127Z,0.00
2019-05-13T00:52:17.120Z,0.00
2019-05-13T00:53:17.105Z,0.00
2019-05-13T00:54:17.103Z,0.00
2019-05-13T00:55:17.090Z,0.00
2019-05-13T00:56:17.073Z,0.00
2019-05-13T00:57:17.063Z,0.00
2019-05-13T00:58:17.059Z,0.00
2019-05-13T00:59:17.074Z,0.00
2019-05-13T01:00:17.031Z,0.00
2019-05-13T01:01:17.022Z,0.00
2019-05-13T01:02:17.012Z,0.00
2019-05-13T01:03:16.998Z,0.00
2019-05-13T01:04:16.987Z,0.00
2019-05-13T01:05:16.986Z,0.00
2019-05-13T01:06:16.966Z,0.00
2019-05-13T01:07:25.930Z,0.00
2019-05-13T01:08:17.948Z,0.00
2019-05-13T01:09:16.934Z,0.00
2019-05-13T01:10:16.938Z,0.00
2019-05-13T01:11:16.911Z,0.00
2019-05-13T01:12:16.900Z,0.00
2019-05-13T01:13:16.889Z,0.00
2019-05-13T01:14:16.880Z,0.00
2019-05-13T01:15:16.876Z,0.00
2019-05-13T01:16:16.858Z,0.00
2019-05-13T01:17:16.848Z,0.00
2019-05-13T01:18:16.835Z,0.00
2019-05-13T01:19:16.832Z,0.00
2019-05-13T01:20:16.823Z,0.00
2019-05-13T01:21:16.807Z,0.00
2019-05-13T01:22:16.793Z,0.00
2019-05-13T01:23:16.782Z,0.00
2019-05-13T01:24:16.772Z,0.00
2019-05-13T01:25:16.770Z,0.00
2019-05-13T01:26:16.754Z,0.00
2019-05-13T01:27:16.738Z,0.00
2019-05-13T01:28:16.728Z,0.00
2019-05-13T01:29:16.717Z,0.00
2019-05-13T01:30:16.714Z,0.00
2019-05-13T01:31:16.695Z,0.00
2019-05-13T01:32:16.686Z,0.00
2019-05-13T01:33:16.673Z,0.00
2019-05-13T01:34:16.663Z,0.00
2019-05-13T01:35:16.660Z,0.00
2019-05-13T01:36:16.640Z,0.00
2019-05-13T01:37:16.629Z,0.00
2019-05-13T01:38:16.619Z,0.00
2019-05-13T01:39:16.608Z,0.00
2019-05-13T01:40:16.604Z,0.00
2019-05-13T01:41:16.585Z,0.00
2019-05-13T01:42:16.576Z,0.00
2019-05-13T01:43:16.566Z,0.00
2019-05-13T01:44:16.559Z,0.00
2019-05-13T01:45:16.552Z,0.00
2019-05-13T01:46:16.534Z,0.00
2019-05-13T01:47:16.520Z,0.00
2019-05-13T01:48:16.509Z,0.00
2019-05-13T01:49:18.614Z,0.00
2019-05-13T01:50:16.500Z,0.00
2019-05-13T01:51:16.478Z,0.00
2019-05-13T01:52:16.467Z,0.00
2019-05-13T01:53:16.455Z,0.00
2019-05-13T01:54:16.449Z,0.00
2019-05-13T01:55:16.442Z,0.00
2019-05-13T01:56:16.423Z,0.00
2019-05-13T01:57:16.412Z,0.00
2019-05-13T01:58:16.401Z,0.00
2019-05-13T01:59:16.391Z,0.00
2019-05-13T02:00:16.390Z,0.00
2019-05-13T02:01:16.368Z,0.00
2019-05-13T02:02:16.357Z,0.00
2019-05-13T02:03:16.347Z,0.00
2019-05-13T02:04:16.336Z,0.00
2019-05-13T02:05:16.337Z,0.00
2019-05-13T02:06:16.313Z,0.00
2019-05-13T02:07:16.306Z,0.00
2019-05-13T02:08:16.293Z,0.00
2019-05-13T02:09:16.282Z,0.00
2019-05-13T02:10:16.294Z,0.00
2019-05-13T02:11:16.260Z,0.00
2019-05-13T02:12:16.250Z,0.00
2019-05-13T02:13:16.247Z,0.00
2019-05-13T02:14:16.227Z,0.00
2019-05-13T02:15:16.216Z,0.00
2019-05-13T02:16:16.214Z,0.00
2019-05-13T02:17:16.202Z,0.00
2019-05-13T02:18:16.187Z,0.00
2019-05-13T02:19:16.173Z,0.00
2019-05-13T02:20:16.162Z,0.00
2019-05-13T02:21:16.161Z,0.00
2019-05-13T02:22:16.141Z,0.00
2019-05-13T02:23:16.135Z,0.00
2019-05-13T02:24:16.120Z,0.00
2019-05-13T02:25:16.109Z,0.00
2019-05-13T02:26:16.113Z,0.00
2019-05-13T02:27:16.087Z,0.00
2019-05-13T02:28:16.075Z,0.00
2019-05-13T02:29:16.065Z,0.00
2019-05-13T02:30:16.713Z,0.00
2019-05-13T02:31:22.969Z,0.00
2019-05-13T02:32:17.031Z,0.00
2019-05-13T02:33:16.026Z,0.00
2019-05-13T02:34:16.012Z,0.00
2019-05-13T02:35:16.009Z,0.00
2019-05-13T02:36:16.003Z,0.00
2019-05-13T02:37:15.980Z,0.00
2019-05-13T02:38:24.025Z,0.00
2019-05-13T02:39:16.960Z,0.00
2019-05-13T02:40:15.950Z,0.00
2019-05-13T02:41:15.947Z,0.00
2019-05-13T02:42:15.934Z,0.00
2019-05-13T02:43:15.926Z,0.00
2019-05-13T02:44:15.908Z,0.00
2019-05-13T02:45:15.895Z,0.00
2019-05-13T02:46:15.900Z,0.00
2019-05-13T02:47:15.874Z,0.00
2019-05-13T02:48:15.878Z,0.00
2019-05-13T02:49:15.852Z,0.00
2019-05-13T02:50:15.840Z,0.00
2019-05-13T02:51:15.838Z,0.00
2019-05-13T02:52:15.824Z,0.00
2019-05-13T02:53:15.816Z,0.00
2019-05-13T02:54:15.797Z,0.00
2019-05-13T02:55:15.790Z,0.00
2019-05-13T02:56:15.810Z,0.00
2019-05-13T02:57:15.783Z,0.00
2019-05-13T02:58:15.754Z,0.00
2019-05-13T02:59:15.744Z,0.00
2019-05-13T03:00:15.733Z,0.00
2019-05-13T03:01:15.724Z,0.00
2019-05-13T03:02:15.721Z,5.62
2019-05-13T03:03:15.701Z,5.62
2019-05-13T03:04:15.694Z,5.62
2019-05-13T03:05:15.681Z,5.62
2019-05-13T03:06:15.668Z,5.62
2019-05-13T03:07:15.672Z,5.62
2019-05-13T03:08:34.093Z,5.62
2019-05-13T03:09:16.640Z,5.62
2019-05-13T03:10:15.632Z,11.25
2019-05-13T03:11:15.622Z,11.25
2019-05-13T03:12:15.617Z,11.25
2019-05-13T03:13:15.594Z,11.25
2019-05-13T03:14:15.585Z,11.25
2019-05-13T03:15:15.573Z,11.25
2019-05-13T03:16:15.564Z,16.88
2019-05-13T03:17:15.559Z,16.88
2019-05-13T03:18:15.540Z,16.88
2019-05-13T03:19:15.534Z,16.88
2019-05-13T03:20:16.893Z,22.50
2019-05-13T03:21:15.515Z,22.50
2019-05-13T03:22:15.506Z,22.50
2019-05-13T03:23:15.491Z,28.12
2019-05-13T03:24:15.485Z,28.12
2019-05-13T03:25:15.465Z,33.75
2019-05-13T03:26:15.456Z,39.38
2019-05-13T03:27:20.049Z,45.00
2019-05-13T03:28:16.431Z,50.62
2019-05-13T03:29:15.427Z,50.62
2019-05-13T03:30:17.029Z,50.62
2019-05-13T03:31:17.428Z,50.62
2019-05-13T03:32:17.119Z,61.88
2019-05-13T03:33:19.129Z,67.50
2019-05-13T03:34:16.815Z,73.12
2019-05-13T03:35:16.790Z,73.12
2019-05-13T03:36:17.444Z,95.62
2019-05-13T03:37:16.608Z,106.88
2019-05-13T03:38:15.327Z,180.00
2019-05-13T03:39:16.636Z,219.38
2019-05-13T03:40:15.303Z,146.25
2019-05-13T03:41:15.294Z,84.38
2019-05-13T03:42:15.291Z,84.38
2019-05-13T03:43:15.275Z,106.88
2019-05-13T03:44:15.261Z,123.75
2019-05-13T03:45:15.252Z,174.38
2019-05-13T03:46:15.248Z,348.75
2019-05-13T03:47:15.242Z,528.75
2019-05-13T03:48:15.218Z,579.38
2019-05-13T03:49:15.208Z,472.50
2019-05-13T03:50:15.198Z,196.88
2019-05-13T03:51:15.186Z,247.50
2019-05-13T03:52:15.197Z,562.50
2019-05-13T03:53:15.165Z,697.50
2019-05-13T03:54:15.155Z,472.50
2019-05-13T03:55:15.142Z,292.50
2019-05-13T03:56:15.133Z,230.62
2019-05-13T03:57:15.134Z,275.62
2019-05-13T03:58:15.117Z,343.12
2019-05-13T03:59:15.100Z,506.25
2019-05-13T04:00:15.090Z,421.88
2019-05-13T04:01:15.079Z,444.38
2019-05-13T04:02:15.073Z,686.25
2019-05-13T04:03:15.065Z,888.75
2019-05-13T04:04:15.049Z,1136.25
2019-05-13T04:05:15.034Z,1383.75
2019-05-13T04:06:15.024Z,1423.12
2019-05-13T04:07:15.013Z,1428.75
2019-05-13T04:08:15.039Z,1423.12
2019-05-13T04:09:25.488Z,1451.25
2019-05-13T04:10:15.981Z,1591.88
2019-05-13T04:11:14.970Z,1743.75
2019-05-13T04:12:14.958Z,1828.12
2019-05-13T04:13:14.962Z,1794.38
2019-05-13T04:14:14.937Z,1800.00
2019-05-13T04:15:14.928Z,1839.38
2019-05-13T04:16:14.916Z,1743.75
2019-05-13T04:17:14.905Z,1080.00
2019-05-13T04:18:14.906Z,438.75
2019-05-13T04:19:14.883Z,303.75
2019-05-13T04:20:14.875Z,236.25
2019-05-13T04:21:14.865Z,348.75
2019-05-13T04:22:14.849Z,601.88
2019-05-13T04:23:14.847Z,894.38
2019-05-13T04:24:14.836Z,911.25
2019-05-13T04:25:14.828Z,978.75
2019-05-13T04:26:15.371Z,1203.75
2019-05-13T04:27:14.804Z,1552.50
2019-05-13T04:28:14.802Z,1901.25
2019-05-13T04:29:14.778Z,1980.00
2019-05-13T04:30:14.768Z,2205.00
2019-05-13T04:31:14.866Z,2311.88
2019-05-13T04:32:14.739Z,2401.88
2019-05-13T04:33:14.743Z,2418.75
2019-05-13T04:34:14.718Z,2463.75
2019-05-13T04:35:14.709Z,2334.38
2019-05-13T04:36:14.696Z,2098.12
2019-05-13T04:37:14.687Z,2165.62
2019-05-13T04:38:14.684Z,2497.50
2019-05-13T04:39:14.669Z,2593.12
2019-05-13T04:40:14.653Z,2610.00
2019-05-13T04:41:14.647Z,2683.12
2019-05-13T04:42:14.632Z,2705.62
2019-05-13T04:43:14.628Z,2756.25
2019-05-13T04:44:14.614Z,2784.38
2019-05-13T04:45:14.601Z,2711.25
2019-05-13T04:46:14.825Z,2801.25
2019-05-13T04:47:14.578Z,2947.50
2019-05-13T04:48:14.578Z,2885.62
2019-05-13T04:49:14.558Z,2851.88
2019-05-13T04:50:14.549Z,2818.12
2019-05-13T04:51:14.602Z,2784.38
2019-05-13T04:52:14.525Z,2885.62
2019-05-13T04:53:14.541Z,2998.12
2019-05-13T04:54:14.503Z,3076.88
2019-05-13T04:55:14.492Z,3110.62
2019-05-13T04:56:14.566Z,3110.62
2019-05-13T04:57:14.471Z,3133.12
2019-05-13T04:58:14.460Z,3116.25
2019-05-13T04:59:14.460Z,3093.75
2019-05-13T05:00:14.438Z,3003.75
2019-05-13T05:01:14.501Z,3060.00
2019-05-13T05:02:14.426Z,3285.00
2019-05-13T05:03:22.823Z,3391.88
2019-05-13T05:04:24.049Z,3290.62
2019-05-13T05:05:15.386Z,3127.50
2019-05-13T05:06:14.378Z,3211.88
2019-05-13T05:07:14.370Z,3296.25
2019-05-13T05:08:14.357Z,3318.75
2019-05-13T05:09:14.352Z,3403.12
2019-05-13T05:10:25.941Z,3493.12
2019-05-13T05:11:15.324Z,3504.38
2019-05-13T05:12:14.314Z,3538.12
2019-05-13T05:13:14.304Z,3543.75
2019-05-13T05:14:14.306Z,3510.00
2019-05-13T05:15:14.283Z,3526.88
2019-05-13T05:16:14.273Z,3577.50
2019-05-13T05:17:14.267Z,3645.00
2019-05-13T05:18:14.253Z,3594.38
2019-05-13T05:19:14.256Z,3566.25
2019-05-13T05:20:14.232Z,3577.50
2019-05-13T05:21:14.221Z,3639.38
2019-05-13T05:22:14.226Z,3673.12
2019-05-13T05:23:14.204Z,3639.38
2019-05-13T05:24:14.203Z,3684.38
2019-05-13T05:25:14.190Z,3757.50
2019-05-13T05:26:15.341Z,3701.25
2019-05-13T05:27:14.164Z,3600.00
2019-05-13T05:28:14.152Z,3622.50
2019-05-13T05:29:14.144Z,3768.75
2019-05-13T05:30:14.145Z,3836.25
2019-05-13T05:31:14.125Z,3836.25
2019-05-13T05:32:14.112Z,3825.00
2019-05-13T05:33:14.102Z,3858.75
2019-05-13T05:34:14.092Z,3870.00
2019-05-13T05:35:14.090Z,3948.75
2019-05-13T05:36:14.077Z,3965.62
2019-05-13T05:37:14.065Z,3948.75
2019-05-13T05:38:14.054Z,4027.50
2019-05-13T05:39:14.045Z,4291.88
2019-05-13T05:40:27.090Z,4365.00
2019-05-13T05:41:15.028Z,4320.00
2019-05-13T05:42:14.017Z,4258.12
2019-05-13T05:43:14.009Z,4145.62
2019-05-13T05:44:14.005Z,4179.38
2019-05-13T05:45:13.995Z,4179.38
2019-05-13T05:46:13.987Z,4246.88
2019-05-13T05:47:13.982Z,4410.00
2019-05-13T05:48:13.957Z,4393.12
2019-05-13T05:49:13.949Z,4511.25
2019-05-13T05:50:13.947Z,4539.38
2019-05-13T05:51:13.929Z,4455.00
2019-05-13T05:52:13.920Z,4488.75
2019-05-13T05:53:13.909Z,4376.25
2019-05-13T05:54:14.997Z,4421.25
2019-05-13T05:55:14.064Z,4567.50
2019-05-13T05:56:13.880Z,4635.00
2019-05-13T05:57:13.871Z,4601.25
2019-05-13T05:58:13.861Z,4494.38
2019-05-13T05:59:13.853Z,4421.25
2019-05-13T06:00:13.843Z,4308.75
2019-05-13T06:01:13.843Z,4640.62
2019-05-13T06:02:13.827Z,4809.38
2019-05-13T06:03:14.160Z,4764.38
2019-05-13T06:04:13.807Z,4753.12
2019-05-13T06:05:13.797Z,4803.75
2019-05-13T06:06:13.800Z,4725.00
2019-05-13T06:07:13.780Z,4635.00
2019-05-13T06:08:13.770Z,4567.50
2019-05-13T06:09:13.762Z,4511.25
2019-05-13T06:10:13.750Z,4539.38
2019-05-13T06:11:13.749Z,4618.12
2019-05-13T06:12:13.736Z,4595.62
2019-05-13T06:13:13.722Z,4477.50
2019-05-13T06:14:13.714Z,4539.38
2019-05-13T06:15:13.704Z,4764.38
2019-05-13T06:16:13.707Z,4657.50
2019-05-13T06:17:13.686Z,4539.38
2019-05-13T06:18:13.676Z,4556.25
2019-05-13T06:19:13.667Z,4528.12
2019-05-13T06:20:13.679Z,4522.50
2019-05-13T06:21:13.656Z,4550.62
2019-05-13T06:22:13.640Z,4500.00
2019-05-13T06:23:13.631Z,4590.00
2019-05-13T06:24:13.620Z,4792.50
2019-05-13T06:25:14.730Z,4741.88
2019-05-13T06:26:13.634Z,4646.25
2019-05-13T06:27:13.592Z,4781.25
2019-05-13T06:28:13.589Z,4747.50
2019-05-13T06:29:13.574Z,4550.62
2019-05-13T06:30:13.565Z,4725.00
2019-05-13T06:31:13.559Z,4803.75
2019-05-13T06:32:21.404Z,4815.00
2019-05-13T06:33:14.545Z,4730.62
2019-05-13T06:34:13.530Z,4505.62
2019-05-13T06:35:13.520Z,4696.88
2019-05-13T06:36:13.513Z,4623.75
2019-05-13T06:37:13.510Z,4590.00
2019-05-13T06:38:13.491Z,4618.12
2019-05-13T06:39:13.493Z,4927.50
2019-05-13T06:40:13.471Z,5113.12
2019-05-13T06:41:14.752Z,5118.75
2019-05-13T06:42:13.462Z,5113.12
2019-05-13T06:43:13.446Z,5276.25
2019-05-13T06:44:13.434Z,5495.62
2019-05-13T06:45:13.426Z,5377.50
2019-05-13T06:46:13.417Z,5715.00
2019-05-13T06:47:13.412Z,6496.88
2019-05-13T06:48:13.394Z,7627.50
2019-05-13T06:49:13.385Z,7672.50
2019-05-13T06:50:13.374Z,4966.88
2019-05-13T06:51:13.364Z,1710.00
2019-05-13T06:52:13.362Z,1136.25
2019-05-13T06:53:13.349Z,1271.25
2019-05-13T06:54:13.334Z,990.00
2019-05-13T06:55:13.325Z,663.75
2019-05-13T06:56:13.314Z,540.00
2019-05-13T06:57:13.678Z,495.00
2019-05-13T06:58:13.294Z,483.75
2019-05-13T06:59:13.292Z,478.12
2019-05-13T07:00:13.273Z,461.25
2019-05-13T07:01:13.262Z,455.62
2019-05-13T07:02:13.287Z,455.62
2019-05-13T07:03:13.257Z,444.38
2019-05-13T07:04:13.237Z,444.38
2019-05-13T07:05:13.224Z,438.75
2019-05-13T07:06:13.215Z,433.12
2019-05-13T07:07:17.068Z,433.12
2019-05-13T07:08:13.197Z,421.88
2019-05-13T07:09:13.182Z,410.62
2019-05-13T07:10:13.171Z,410.62
2019-05-13T07:11:18.501Z,405.00
2019-05-13T07:12:14.146Z,405.00
2019-05-13T07:13:13.148Z,393.75
2019-05-13T07:14:13.128Z,393.75
2019-05-13T07:15:13.119Z,388.12
2019-05-13T07:16:13.110Z,382.50
2019-05-13T07:17:13.127Z,382.50
2019-05-13T07:18:16.068Z,382.50
2019-05-13T07:19:13.074Z,376.88
2019-05-13T07:20:13.065Z,371.25
2019-05-13T07:21:13.058Z,365.62
2019-05-13T07:22:13.045Z,365.62
2019-05-13T07:23:13.054Z,360.00
2019-05-13T07:24:13.093Z,354.38
2019-05-13T07:25:13.037Z,348.75
2019-05-13T07:26:13.006Z,348.75
2019-05-13T07:27:12.991Z,343.12
2019-05-13T07:28:12.988Z,343.12
2019-05-13T07:29:13.734Z,343.12
2019-05-13T07:30:12.958Z,343.12
2019-05-13T07:31:12.948Z,343.12
2019-05-13T07:32:12.944Z,343.12
2019-05-13T07:33:13.010Z,337.50
2019-05-13T07:34:12.924Z,337.50
2019-05-13T07:35:14.445Z,337.50
2019-05-13T07:36:12.994Z,337.50
2019-05-13T07:37:12.899Z,320.62
2019-05-13T07:38:12.895Z,331.88
2019-05-13T07:39:12.873Z,326.25
2019-05-13T07:40:12.853Z,331.88
2019-05-13T07:41:12.847Z,331.88
2019-05-13T07:42:12.880Z,331.88
2019-05-13T07:43:12.817Z,337.50
2019-05-13T07:44:12.816Z,331.88
2019-05-13T07:45:12.797Z,331.88
2019-05-13T07:46:12.869Z,331.88
2019-05-13T07:47:15.693Z,331.88
2019-05-13T07:48:20.971Z,320.62
2019-05-13T07:49:13.762Z,320.62
2019-05-13T07:50:12.953Z,343.12
2019-05-13T07:51:12.737Z,326.25
2019-05-13T07:52:12.722Z,331.88
2019-05-13T07:53:18.769Z,337.50
2019-05-13T07:54:13.710Z,348.75
2019-05-13T07:55:12.694Z,219.38
2019-05-13T07:56:12.699Z,348.75
2019-05-13T07:57:12.672Z,354.38
2019-05-13T07:58:12.657Z,354.38
2019-05-13T07:59:12.654Z,360.00
2019-05-13T08:00:12.732Z,348.75
2019-05-13T08:01:12.626Z,354.38
2019-05-13T08:02:12.661Z,348.75
2019-05-13T08:03:12.665Z,348.75
2019-05-13T08:04:21.943Z,382.50
2019-05-13T08:05:13.579Z,371.25
2019-05-13T08:06:12.577Z,360.00
2019-05-13T08:07:12.559Z,382.50
2019-05-13T08:08:12.548Z,365.62
2019-05-13T08:09:12.960Z,360.00
2019-05-13T08:10:12.526Z,388.12
2019-05-13T08:11:12.943Z,393.75
2019-05-13T08:12:14.514Z,405.00
2019-05-13T08:13:12.493Z,393.75
2019-05-13T08:14:12.545Z,393.75
2019-05-13T08:15:12.476Z,382.50
2019-05-13T08:16:12.475Z,382.50
2019-05-13T08:17:12.535Z,298.12
2019-05-13T08:18:12.557Z,320.62
2019-05-13T08:19:12.582Z,315.00
2019-05-13T08:20:12.726Z,472.50
2019-05-13T08:21:12.463Z,421.88
2019-05-13T08:22:12.396Z,360.00
2019-05-13T08:23:12.405Z,354.38
2019-05-13T08:24:12.381Z,354.38
2019-05-13T08:25:12.656Z,343.12
2019-05-13T08:26:12.572Z,315.00
2019-05-13T08:27:12.368Z,309.38
2019-05-13T08:28:12.717Z,320.62
2019-05-13T08:29:12.327Z,270.00
2019-05-13T08:30:12.309Z,225.00
2019-05-13T08:31:12.297Z,219.38
2019-05-13T08:32:12.287Z,225.00
2019-05-13T08:33:12.802Z,241.88
2019-05-13T08:34:12.306Z,331.88
2019-05-13T08:35:12.684Z,337.50
2019-05-13T08:36:12.393Z,337.50
2019-05-13T08:37:12.233Z,331.88
2019-05-13T08:38:12.264Z,331.88
2019-05-13T08:39:12.690Z,331.88
2019-05-13T08:40:12.295Z,348.75
2019-05-13T08:41:18.804Z,348.75
2019-05-13T08:42:18.962Z,365.62
2019-05-13T08:43:13.168Z,315.00
2019-05-13T08:44:12.555Z,371.25
2019-05-13T08:45:12.278Z,382.50
2019-05-13T08:46:12.527Z,365.62
2019-05-13T08:47:12.277Z,376.88
2019-05-13T08:48:12.998Z,371.25
2019-05-13T08:49:12.145Z,382.50
2019-05-13T08:50:12.315Z,382.50
2019-05-13T08:51:12.082Z,365.62
2019-05-13T08:52:12.350Z,354.38
2019-05-13T08:53:12.421Z,354.38
2019-05-13T08:54:12.050Z,236.25
2019-05-13T08:55:15.606Z,241.88
2019-05-13T08:56:12.270Z,247.50
2019-05-13T08:57:12.114Z,253.12
2019-05-13T08:58:12.695Z,264.38
2019-05-13T08:59:12.003Z,258.75
2019-05-13T09:00:13.750Z,270.00
2019-05-13T09:01:12.500Z,399.38
2019-05-13T09:02:11.962Z,416.25
2019-05-13T09:03:12.205Z,281.25
2019-05-13T09:04:12.112Z,247.50
2019-05-13T09:05:12.224Z,241.88
2019-05-13T09:06:11.965Z,241.88
2019-05-13T09:07:12.258Z,230.62
2019-05-13T09:08:11.897Z,230.62
2019-05-13T09:09:11.888Z,230.62
2019-05-13T09:10:12.532Z,225.00
2019-05-13T09:11:12.109Z,225.00
2019-05-13T09:12:28.123Z,213.75
2019-05-13T09:13:12.843Z,202.50
2019-05-13T09:14:11.833Z,202.50
2019-05-13T09:15:12.105Z,202.50
2019-05-13T09:16:13.415Z,202.50
2019-05-13T09:17:12.171Z,208.12
2019-05-13T09:18:11.792Z,213.75
2019-05-13T09:19:15.897Z,213.75
2019-05-13T09:20:11.778Z,213.75
2019-05-13T09:21:11.835Z,213.75
2019-05-13T09:22:12.504Z,219.38
2019-05-13T09:23:11.733Z,219.38
2019-05-13T09:24:21.681Z,219.38
2019-05-13T09:25:12.720Z,225.00
2019-05-13T09:26:12.129Z,230.62
2019-05-13T09:27:12.180Z,236.25
2019-05-13T09:28:12.463Z,382.50
2019-05-13T09:29:12.067Z,371.25
2019-05-13T09:30:11.970Z,427.50
2019-05-13T09:31:12.628Z,331.88
2019-05-13T09:32:12.234Z,236.25
2019-05-13T09:33:11.670Z,230.62
2019-05-13T09:34:12.301Z,219.38
2019-05-13T09:35:12.128Z,208.12
2019-05-13T09:36:12.580Z,208.12
2019-05-13T09:37:11.989Z,202.50
2019-05-13T09:38:12.675Z,208.12
2019-05-13T09:39:12.606Z,213.75
2019-05-13T09:40:11.657Z,225.00
2019-05-13T09:41:12.324Z,225.00
2019-05-13T09:42:12.738Z,236.25
2019-05-13T09:43:11.760Z,230.62
2019-05-13T09:44:12.365Z,219.38
2019-05-13T09:45:12.352Z,219.38
2019-05-13T09:46:11.914Z,219.38
2019-05-13T09:47:12.525Z,213.75
2019-05-13T09:48:12.962Z,225.00
2019-05-13T09:49:19.186Z,230.62
2019-05-13T09:50:27.596Z,230.62
2019-05-13T09:51:12.602Z,236.25
2019-05-13T09:52:12.044Z,236.25
2019-05-13T09:53:11.682Z,236.25
2019-05-13T09:54:11.796Z,247.50
2019-05-13T09:55:25.346Z,416.25
2019-05-13T09:56:12.383Z,427.50
2019-05-13T09:57:12.170Z,421.88
2019-05-13T09:58:11.991Z,421.88
2019-05-13T09:59:11.876Z,416.25
2019-05-13T10:00:12.257Z,388.12
2019-05-13T10:01:12.362Z,405.00
2019-05-13T10:02:12.493Z,405.00
2019-05-13T10:03:13.609Z,405.00
2019-05-13T10:04:11.987Z,208.12
2019-05-13T10:05:11.698Z,202.50
2019-05-13T10:06:12.696Z,202.50
2019-05-13T10:07:12.366Z,202.50
2019-05-13T10:08:12.497Z,202.50
2019-05-13T10:09:12.570Z,202.50
2019-05-13T10:10:12.018Z,191.25
2019-05-13T10:11:12.349Z,202.50
2019-05-13T10:12:12.201Z,202.50
2019-05-13T10:13:13.086Z,208.12
2019-05-13T10:14:11.757Z,202.50
2019-05-13T10:15:12.711Z,196.88
2019-05-13T10:16:12.415Z,208.12
2019-05-13T10:17:13.145Z,208.12
2019-05-13T10:18:12.595Z,208.12
2019-05-13T10:19:12.673Z,208.12
2019-05-13T10:20:12.097Z,393.75
2019-05-13T10:21:11.109Z,399.38
2019-05-13T10:22:11.973Z,399.38
2019-05-13T10:23:12.605Z,410.62
2019-05-13T10:24:12.573Z,410.62
2019-05-13T10:25:12.018Z,399.38
2019-05-13T10:26:13.507Z,410.62
2019-05-13T10:27:12.227Z,416.25
2019-05-13T10:28:13.300Z,410.62
2019-05-13T10:29:11.878Z,399.38
2019-05-13T10:30:11.583Z,393.75
2019-05-13T10:31:12.011Z,393.75
2019-05-13T10:32:10.980Z,393.75
2019-05-13T10:33:12.409Z,388.12
2019-05-13T10:34:13.581Z,393.75
2019-05-13T10:35:10.947Z,405.00
2019-05-13T10:36:12.056Z,416.25
2019-05-13T10:37:11.442Z,433.12
2019-05-13T10:38:13.405Z,416.25
2019-05-13T10:39:11.815Z,421.88
2019-05-13T10:40:11.556Z,433.12
2019-05-13T10:41:12.014Z,298.12
2019-05-13T10:42:12.082Z,433.12
2019-05-13T10:43:27.091Z,275.62
2019-05-13T10:44:12.242Z,343.12
2019-05-13T10:45:12.891Z,427.50
2019-05-13T10:46:12.759Z,427.50
2019-05-13T10:47:12.067Z,258.75
2019-05-13T10:48:12.929Z,247.50
2019-05-13T10:49:12.310Z,264.38
2019-05-13T10:50:10.784Z,264.38
2019-05-13T10:51:13.046Z,264.38
2019-05-13T10:52:12.291Z,258.75
2019-05-13T10:53:12.242Z,270.00
2019-05-13T10:54:10.741Z,258.75
2019-05-13T10:55:12.856Z,253.12
2019-05-13T10:56:10.718Z,258.75
2019-05-13T10:57:13.636Z,264.38
2019-05-13T10:58:12.333Z,258.75
2019-05-13T10:59:12.556Z,258.75
2019-05-13T11:00:12.261Z,264.38
2019-05-13T11:01:11.563Z,309.38
2019-05-13T11:02:13.383Z,292.50
2019-05-13T11:03:11.803Z,371.25
2019-05-13T11:04:13.500Z,281.25
2019-05-13T11:05:12.205Z,281.25
2019-05-13T11:06:11.645Z,270.00
2019-05-13T11:07:12.058Z,270.00
2019-05-13T11:08:10.591Z,286.88
2019-05-13T11:09:12.973Z,241.88
2019-05-13T11:10:13.307Z,230.62
2019-05-13T11:11:12.936Z,219.38
2019-05-13T11:12:12.182Z,230.62
2019-05-13T11:13:11.755Z,264.38
2019-05-13T11:14:15.136Z,371.25
2019-05-13T11:15:11.510Z,326.25
2019-05-13T11:16:12.232Z,247.50
2019-05-13T11:17:12.993Z,225.00
2019-05-13T11:18:11.755Z,213.75
2019-05-13T11:19:12.061Z,202.50
2019-05-13T11:20:12.503Z,191.25
2019-05-13T11:21:13.031Z,191.25
2019-05-13T11:22:12.308Z,191.25
2019-05-13T11:23:12.449Z,196.88
2019-05-13T11:24:12.680Z,202.50
2019-05-13T11:25:12.331Z,360.00
2019-05-13T11:26:12.881Z,365.62
2019-05-13T11:27:11.989Z,354.38
2019-05-13T11:28:12.269Z,376.88
2019-05-13T11:29:12.177Z,376.88
2019-05-13T11:30:10.356Z,371.25
2019-05-13T11:31:10.347Z,376.88
2019-05-13T11:32:13.010Z,360.00
2019-05-13T11:33:10.431Z,388.12
2019-05-13T11:34:10.300Z,382.50
2019-05-13T11:35:12.736Z,354.38
2019-05-13T11:36:12.926Z,388.12
2019-05-13T11:37:12.393Z,382.50
2019-05-13T11:38:12.159Z,382.50
2019-05-13T11:39:12.973Z,382.50
2019-05-13T11:40:12.052Z,388.12
2019-05-13T11:41:11.833Z,393.75
2019-05-13T11:42:13.224Z,360.00
2019-05-13T11:43:12.243Z,376.88
2019-05-13T11:44:16.033Z,376.88
2019-05-13T11:45:11.691Z,382.50
2019-05-13T11:46:10.168Z,376.88
2019-05-13T11:47:12.729Z,376.88
2019-05-13T11:48:13.235Z,376.88
2019-05-13T11:49:11.753Z,371.25
2019-05-13T11:50:11.567Z,213.75
2019-05-13T11:51:12.795Z,376.88
2019-05-13T11:52:11.655Z,219.38
2019-05-13T11:53:30.008Z,382.50
2019-05-13T11:54:13.958Z,393.75
2019-05-13T11:55:12.763Z,393.75
2019-05-13T11:56:11.486Z,376.88
2019-05-13T11:57:12.502Z,348.75
2019-05-13T11:58:13.535Z,382.50
2019-05-13T11:59:13.368Z,230.62
2019-05-13T12:00:13.449Z,225.00
2019-05-13T12:01:10.007Z,225.00
2019-05-13T12:02:13.167Z,225.00
2019-05-13T12:03:09.994Z,281.25
2019-05-13T12:04:09.973Z,247.50
2019-05-13T12:05:09.978Z,219.38
2019-05-13T12:06:09.952Z,219.38
2019-05-13T12:07:12.995Z,196.88
2019-05-13T12:08:12.697Z,213.75
2019-05-13T12:09:12.753Z,185.62
2019-05-13T12:10:12.301Z,191.25
2019-05-13T12:11:10.388Z,337.50
2019-05-13T12:12:13.241Z,337.50
2019-05-13T12:13:12.524Z,236.25
2019-05-13T12:14:34.702Z,337.50
2019-05-13T12:15:38.846Z,326.25
2019-05-13T12:16:12.936Z,360.00
2019-05-13T12:17:13.898Z,348.75
2019-05-13T12:18:12.591Z,360.00
2019-05-13T12:19:11.819Z,365.62
2019-05-13T12:20:12.131Z,376.88
2019-05-13T12:21:11.780Z,388.12
2019-05-13T12:22:12.940Z,371.25
2019-05-13T12:23:12.830Z,253.12
2019-05-13T12:24:11.297Z,230.62
2019-05-13T12:25:13.570Z,230.62
2019-05-13T12:26:12.712Z,230.62
2019-05-13T12:27:10.994Z,219.38
2019-05-13T12:28:11.425Z,208.12
2019-05-13T12:29:17.890Z,219.38
2019-05-13T12:30:12.559Z,219.38
2019-05-13T12:31:12.176Z,219.38
2019-05-13T12:32:13.550Z,219.38
2019-05-13T12:33:13.317Z,225.00
2019-05-13T12:34:13.084Z,360.00
2019-05-13T12:35:09.754Z,371.25
2019-05-13T12:36:15.391Z,371.25